Time;durP1;ratioP1;P1;durP2;ratioP2;P2;SDS_P1;SDS_P2;PMS_P1;PMS_P2;Temp;Humidity;BMP_temperature;BMP_pressure;BME280_temperature;BME280_humidity;BME280_pressure;Samples;Min_cycle;Max_cycle;Signal;HPM_P1;HPM_P2
2021/05/25 00:00:18;;;;;;;1.70;1.60;;;12.50;99.90;;;;;;5066179;28;20397;-81
2021/05/25 00:02:45;;;;;;;1.57;1.47;;;12.60;99.90;;;;;;5050797;28;20874;-81
2021/05/25 00:05:15;;;;;;;2.70;1.37;;;12.40;99.90;;;;;;5076998;28;20390;-81
2021/05/25 00:07:42;;;;;;;3.67;1.30;;;12.40;99.90;;;;;;5096971;28;20441;-81
2021/05/25 00:10:09;;;;;;;1.60;1.50;;;12.40;99.90;;;;;;5096192;28;20450;-79
2021/05/25 00:12:36;;;;;;;1.20;1.10;;;12.10;99.90;;;;;;5089942;28;20398;-81
2021/05/25 00:15:06;;;;;;;1.50;1.33;;;12.20;99.90;;;;;;5095054;28;20420;-81
2021/05/25 00:17:32;;;;;;;1.30;1.20;;;12.40;99.90;;;;;;5083401;28;20398;-81
2021/05/25 00:20:01;;;;;;;1.43;1.30;;;12.20;99.90;;;;;;5084568;28;20489;-81
2021/05/25 00:22:27;;;;;;;2.23;1.30;;;12.30;99.90;;;;;;5081787;28;20436;-81
2021/05/25 00:24:52;;;;;;;3.67;1.70;;;12.20;99.90;;;;;;5082644;28;20398;-81
2021/05/25 00:27:18;;;;;;;2.50;1.30;;;11.90;99.90;;;;;;5063925;28;20218;-81
2021/05/25 00:29:45;;;;;;;2.00;1.23;;;11.90;99.90;;;;;;5083680;28;20163;-81
2021/05/25 00:32:11;;;;;;;3.40;1.20;;;11.80;99.90;;;;;;5082080;28;20447;-81
2021/05/25 00:34:37;;;;;;;2.17;1.30;;;12.00;99.90;;;;;;5048330;28;20394;-81
2021/05/25 00:37:03;;;;;;;2.90;1.40;;;12.10;99.90;;;;;;5081319;28;20230;-80
2021/05/25 00:39:30;;;;;;;1.40;1.30;;;12.10;99.90;;;;;;5082493;28;20592;-81
2021/05/25 00:41:56;;;;;;;2.90;1.13;;;11.80;99.90;;;;;;5082195;28;20174;-80
2021/05/25 00:44:21;;;;;;;5.17;2.13;;;11.60;99.90;;;;;;5064006;28;20525;-80
2021/05/25 00:46:47;;;;;;;1.10;1.00;;;11.60;99.90;;;;;;5059236;28;20250;-81
2021/05/25 00:49:13;;;;;;;1.30;1.20;;;11.50;99.90;;;;;;5083498;28;20160;-81
2021/05/25 00:51:42;;;;;;;2.50;1.40;;;11.40;99.90;;;;;;5065618;28;20202;-81
2021/05/25 00:54:08;;;;;;;1.27;1.17;;;11.40;99.90;;;;;;5082556;28;20592;-81
2021/05/25 00:56:34;;;;;;;1.13;1.00;;;11.30;99.90;;;;;;5065423;28;20480;-81
2021/05/25 00:59:01;;;;;;;2.10;1.50;;;11.40;99.90;;;;;;5046784;28;20489;-81
2021/05/25 01:01:30;;;;;;;1.40;1.30;;;11.60;99.90;;;;;;5064837;28;20452;-81
2021/05/25 01:03:56;;;;;;;1.40;1.30;;;11.40;99.90;;;;;;5080913;28;20544;-81
2021/05/25 01:06:28;;;;;;;1.17;1.07;;;11.30;99.90;;;;;;5064698;28;20156;-81
2021/05/25 01:08:58;;;;;;;1.10;1.00;;;11.20;99.90;;;;;;5049146;28;20889;-81
2021/05/25 01:11:23;;;;;;;2.27;1.10;;;11.20;99.90;;;;;;5064643;28;20417;-81
2021/05/25 01:13:54;;;;;;;1.10;1.00;;;11.30;99.90;;;;;;5031061;28;20976;-81
2021/05/25 01:16:23;;;;;;;1.50;1.40;;;11.40;99.90;;;;;;5079472;28;20167;-81
2021/05/25 01:18:49;;;;;;;1.40;1.30;;;11.30;99.90;;;;;;5065080;28;20590;-81
2021/05/25 01:21:16;;;;;;;5.20;1.40;;;11.40;99.90;;;;;;5079789;28;20413;-81
2021/05/25 01:23:42;;;;;;;1.40;1.20;;;11.40;99.90;;;;;;5064166;28;20448;-82
2021/05/25 01:26:08;;;;;;;1.20;1.10;;;11.50;99.90;;;;;;5064664;28;20517;-81
2021/05/25 01:28:36;;;;;;;1.40;1.10;;;11.70;99.90;;;;;;5064081;28;20489;-81
2021/05/25 01:31:03;;;;;;;1.10;1.00;;;11.20;99.90;;;;;;5049485;28;20438;-80
2021/05/25 01:33:31;;;;;;;1.70;1.10;;;11.30;99.90;;;;;;5100364;28;20412;-81
2021/05/25 01:35:57;;;;;;;1.30;1.20;;;11.20;99.90;;;;;;5083748;28;20440;-81
2021/05/25 01:38:24;;;;;;;1.30;1.20;;;11.30;99.90;;;;;;5100213;28;20409;-81
2021/05/25 01:40:52;;;;;;;4.80;1.17;;;11.10;99.90;;;;;;5071262;28;20404;-81
2021/05/25 01:43:18;;;;;;;2.03;1.63;;;10.90;99.90;;;;;;5104305;28;20468;-81
2021/05/25 01:45:45;;;;;;;1.20;1.10;;;11.10;99.90;;;;;;5071621;28;20460;-80
2021/05/25 01:48:11;;;;;;;2.30;1.10;;;11.00;99.90;;;;;;5104496;28;20952;-81
2021/05/25 01:50:39;;;;;;;1.20;1.10;;;11.00;99.90;;;;;;5087540;28;20468;-81
2021/05/25 01:53:08;;;;;;;3.27;1.40;;;11.10;99.90;;;;;;5103998;28;20384;-81
2021/05/25 01:55:47;;;;;;;1.83;1.20;;;11.30;99.90;;;;;;5084558;28;20455;-81
2021/05/25 01:58:19;;;;;;;1.57;1.37;;;11.30;99.90;;;;;;5085854;28;20397;-80
2021/05/25 02:00:50;;;;;;;1.77;1.30;;;11.40;99.90;;;;;;5069340;28;20884;-81
2021/05/25 02:03:17;;;;;;;1.23;1.13;;;11.30;99.90;;;;;;5084821;28;20426;-81
2021/05/25 02:05:46;;;;;;;1.30;1.10;;;11.40;99.90;;;;;;5085479;28;20393;-81
2021/05/25 02:08:13;;;;;;;1.67;1.23;;;11.50;99.90;;;;;;5067780;28;20457;-80
2021/05/25 02:10:42;;;;;;;1.23;1.10;;;11.40;99.90;;;;;;5068263;28;20389;-81
2021/05/25 02:13:12;;;;;;;1.30;1.20;;;11.40;99.90;;;;;;5067483;28;20402;-81
2021/05/25 02:15:40;;;;;;;2.80;1.20;;;11.20;99.90;;;;;;5084971;28;20429;-80
2021/05/25 02:18:13;;;;;;;1.30;1.20;;;11.30;99.90;;;;;;5068800;28;20397;-81
2021/05/25 02:20:41;;;;;;;1.30;1.20;;;11.20;99.90;;;;;;5068923;28;20401;-81
2021/05/25 02:23:08;;;;;;;1.30;1.20;;;11.30;99.90;;;;;;5068948;28;20543;-81
2021/05/25 02:25:34;;;;;;;1.30;1.20;;;11.00;99.90;;;;;;5084725;28;20433;-81
2021/05/25 02:28:02;;;;;;;2.27;1.10;;;10.80;99.90;;;;;;5051191;28;20455;-81
2021/05/25 02:30:28;;;;;;;2.57;1.60;;;10.80;99.90;;;;;;5072251;28;20418;-79
2021/05/25 02:32:56;;;;;;;1.30;1.00;;;10.90;99.90;;;;;;5095609;28;20858;-78
2021/05/25 02:35:23;;;;;;;6.33;1.60;;;10.90;99.90;;;;;;5080222;28;20394;-79
2021/05/25 02:37:49;;;;;;;1.37;1.13;;;10.90;99.90;;;;;;5097129;28;20413;-78
2021/05/25 02:40:16;;;;;;;2.43;1.33;;;10.90;99.90;;;;;;5088586;28;20465;-81
2021/05/25 02:42:42;;;;;;;3.27;1.00;;;11.00;99.90;;;;;;5051047;28;20488;-81
2021/05/25 02:45:09;;;;;;;1.23;1.00;;;11.00;99.90;;;;;;5069475;28;20410;-78
2021/05/25 02:47:35;;;;;;;1.53;1.07;;;10.80;99.90;;;;;;5090687;28;20477;-79
2021/05/25 02:50:08;;;;;;;0.90;0.90;;;10.70;99.90;;;;;;5070312;28;20398;-81
2021/05/25 02:52:37;;;;;;;1.10;1.00;;;10.80;99.90;;;;;;5086635;28;20409;-81
2021/05/25 02:55:05;;;;;;;2.40;1.30;;;10.60;99.90;;;;;;5033391;28;20501;-81
2021/05/25 02:57:32;;;;;;;1.30;1.20;;;10.50;99.90;;;;;;5042845;28;20415;-81
2021/05/25 02:59:58;;;;;;;1.20;1.10;;;10.80;99.90;;;;;;4993803;28;20427;-81
2021/05/25 03:02:24;;;;;;;1.33;1.23;;;10.90;99.90;;;;;;5042555;28;20414;-81
2021/05/25 03:04:50;;;;;;;1.30;1.10;;;10.80;99.90;;;;;;5026020;28;20215;-81
2021/05/25 03:07:16;;;;;;;1.60;1.17;;;10.70;99.90;;;;;;5025750;28;20247;-81
2021/05/25 03:09:42;;;;;;;5.63;1.83;;;10.80;99.90;;;;;;4993767;28;20404;-81
2021/05/25 03:12:08;;;;;;;1.47;1.20;;;10.80;99.90;;;;;;5026341;28;20176;-80
2021/05/25 03:14:34;;;;;;;1.30;1.20;;;10.40;99.90;;;;;;5009746;28;20157;-81
2021/05/25 03:17:00;;;;;;;2.17;1.47;;;10.30;99.90;;;;;;5010051;28;20412;-81
2021/05/25 03:19:26;;;;;;;2.60;1.30;;;10.30;99.90;;;;;;5043366;28;20392;-81
2021/05/25 03:21:53;;;;;;;3.47;1.53;;;10.40;99.90;;;;;;5027712;28;20851;-81
2021/05/25 03:24:20;;;;;;;3.03;1.67;;;10.40;99.90;;;;;;5063038;28;20399;-81
2021/05/25 03:26:46;;;;;;;1.20;1.10;;;10.40;99.90;;;;;;5062548;28;20450;-81
2021/05/25 03:29:12;;;;;;;1.90;1.80;;;10.30;99.90;;;;;;5041591;28;20406;-81
2021/05/25 03:31:39;;;;;;;1.37;1.20;;;10.30;99.90;;;;;;5083438;28;20393;-81
2021/05/25 03:34:05;;;;;;;2.70;1.20;;;10.40;99.90;;;;;;5074763;28;20175;-80
2021/05/25 03:36:32;;;;;;;1.50;1.17;;;10.40;99.90;;;;;;5073084;28;20449;-81
2021/05/25 03:39:00;;;;;;;1.30;1.20;;;10.30;99.90;;;;;;5066428;28;20397;-81
2021/05/25 03:41:26;;;;;;;2.33;1.43;;;10.50;99.90;;;;;;5066400;28;20428;-80
2021/05/25 03:43:52;;;;;;;1.00;1.00;;;10.40;99.90;;;;;;5065858;28;20500;-81
2021/05/25 03:46:17;;;;;;;1.23;1.13;;;10.30;99.90;;;;;;5066601;28;20401;-81
2021/05/25 03:48:43;;;;;;;1.30;1.10;;;10.40;99.90;;;;;;5066701;28;20238;-81
2021/05/25 03:51:12;;;;;;;1.20;1.10;;;10.50;99.90;;;;;;5083582;28;20163;-81
2021/05/25 03:53:38;;;;;;;1.40;1.30;;;10.40;99.90;;;;;;5083430;28;20398;-81
2021/05/25 03:56:25;;;;;;;3.17;1.20;;;10.60;99.90;;;;;;5066074;28;20193;-81
2021/05/25 03:58:50;;;;;;;1.20;1.10;;;10.50;99.90;;;;;;5083922;28;20179;-81
2021/05/25 04:01:25;;;;;;;1.30;1.20;;;10.20;99.90;;;;;;5066164;28;20719;-82
2021/05/25 04:03:53;;;;;;;2.13;1.00;;;10.40;99.90;;;;;;5084501;28;20401;-81
2021/05/25 04:06:19;;;;;;;1.50;1.40;;;10.30;99.90;;;;;;5067013;28;20394;-81
2021/05/25 04:08:46;;;;;;;1.83;1.40;;;10.20;99.90;;;;;;5084776;28;20556;-81
2021/05/25 04:11:13;;;;;;;2.87;1.53;;;10.50;99.90;;;;;;5083115;28;20446;-82
2021/05/25 04:13:39;;;;;;;6.67;1.70;;;10.60;99.90;;;;;;5065780;28;20405;-81
2021/05/25 04:16:09;;;;;;;1.20;1.10;;;10.50;99.90;;;;;;5066201;28;20429;-81
2021/05/25 04:18:35;;;;;;;1.10;1.00;;;10.60;99.90;;;;;;5065337;28;20417;-82
2021/05/25 04:21:01;;;;;;;3.27;1.07;;;10.90;99.90;;;;;;5033068;28;20504;-81
2021/05/25 04:23:27;;;;;;;2.60;1.53;;;11.00;99.90;;;;;;5077749;28;20448;-82
2021/05/25 04:25:53;;;;;;;1.27;1.17;;;10.80;99.90;;;;;;5063569;28;20488;-81
2021/05/25 04:28:19;;;;;;;1.50;1.30;;;10.80;99.90;;;;;;5063966;28;20465;-81
2021/05/25 04:30:46;;;;;;;5.10;2.23;;;10.40;99.90;;;;;;5080282;28;20172;-82
2021/05/25 04:33:18;;;;;;;5.30;1.80;;;10.40;99.90;;;;;;5080704;28;20184;-82
2021/05/25 04:35:44;;;;;;;4.70;1.33;;;10.60;99.90;;;;;;5047249;28;20416;-82
2021/05/25 04:38:13;;;;;;;1.20;1.10;;;10.50;99.90;;;;;;5063559;28;20413;-81
2021/05/25 04:40:42;;;;;;;1.30;1.20;;;10.50;99.90;;;;;;5080345;28;20390;-81
2021/05/25 04:43:09;;;;;;;3.10;1.10;;;10.40;99.90;;;;;;5046880;28;20461;-81
2021/05/25 04:45:38;;;;;;;1.30;1.20;;;10.10;99.90;;;;;;5072116;28;20460;-82
2021/05/25 04:48:05;;;;;;;1.73;1.37;;;10.40;99.90;;;;;;5044830;28;20516;-80
2021/05/25 04:50:31;;;;;;;1.13;1.03;;;10.40;99.90;;;;;;5043681;28;20433;-81
2021/05/25 04:52:57;;;;;;;5.43;1.40;;;10.60;99.90;;;;;;5060595;28;20415;-82
2021/05/25 04:55:23;;;;;;;1.40;1.17;;;10.80;99.90;;;;;;5043679;28;20407;-80
2021/05/25 04:57:50;;;;;;;2.70;1.57;;;10.80;99.90;;;;;;5027199;28;20167;-81
2021/05/25 05:00:24;;;;;;;2.27;1.30;;;10.80;99.90;;;;;;5043817;28;20418;-81
2021/05/25 05:02:50;;;;;;;4.03;2.10;;;10.70;99.90;;;;;;5061024;28;20402;-81
2021/05/25 05:05:16;;;;;;;1.67;1.57;;;10.90;99.90;;;;;;5065944;28;20411;-80
2021/05/25 05:07:43;;;;;;;2.90;1.40;;;11.00;99.90;;;;;;5062481;28;20473;-80
2021/05/25 05:10:10;;;;;;;1.93;1.30;;;11.10;99.90;;;;;;5061448;28;20432;-81
2021/05/25 05:12:35;;;;;;;7.63;1.97;;;11.10;99.90;;;;;;5042692;28;20448;-81
2021/05/25 05:15:03;;;;;;;3.63;1.20;;;11.10;99.90;;;;;;5041934;28;20481;-81
2021/05/25 05:17:29;;;;;;;2.03;1.20;;;11.20;99.90;;;;;;5078535;28;20183;-82
2021/05/25 05:19:56;;;;;;;2.50;2.13;;;11.30;99.90;;;;;;5080547;28;20855;-81
2021/05/25 05:22:22;;;;;;;1.63;1.07;;;11.20;99.90;;;;;;5081268;28;20408;-81
2021/05/25 05:24:49;;;;;;;1.20;1.10;;;11.30;99.90;;;;;;5081297;28;20393;-82
2021/05/25 05:27:15;;;;;;;2.50;1.10;;;11.30;99.90;;;;;;5079795;28;20437;-81
2021/05/25 05:29:42;;;;;;;1.20;1.10;;;11.30;99.90;;;;;;5080654;28;20389;-81
2021/05/25 05:32:08;;;;;;;1.33;1.10;;;11.40;99.90;;;;;;5080974;28;20390;-81
2021/05/25 05:34:35;;;;;;;1.50;1.40;;;11.10;99.90;;;;;;5080499;28;20728;-82
2021/05/25 05:37:00;;;;;;;4.50;1.93;;;11.10;99.90;;;;;;5081916;28;20398;-81
2021/05/25 05:39:26;;;;;;;3.17;1.47;;;10.70;99.90;;;;;;5082182;28;20401;-80
2021/05/25 05:41:52;;;;;;;1.30;1.20;;;10.90;99.90;;;;;;5067329;28;20163;-79
2021/05/25 05:44:21;;;;;;;1.30;1.20;;;11.10;99.90;;;;;;5068891;28;20458;-80
2021/05/25 05:46:47;;;;;;;1.57;1.20;;;11.40;99.90;;;;;;5086646;28;20405;-81
2021/05/25 05:49:13;;;;;;;1.63;1.17;;;11.60;99.90;;;;;;5085170;28;20405;-80
2021/05/25 05:51:39;;;;;;;2.13;1.37;;;11.50;99.90;;;;;;5086535;28;20473;-80
2021/05/25 05:54:05;;;;;;;7.60;1.50;;;11.30;99.90;;;;;;5085754;28;20164;-79
2021/05/25 05:56:31;;;;;;;2.30;1.20;;;11.50;99.90;;;;;;5085901;28;20408;-81
2021/05/25 05:58:57;;;;;;;2.10;1.30;;;11.70;99.90;;;;;;5070485;28;20431;-79
2021/05/25 06:01:23;;;;;;;3.83;1.50;;;11.70;99.90;;;;;;5067727;28;20175;-79
2021/05/25 06:03:49;;;;;;;3.67;1.93;;;11.50;99.90;;;;;;5084358;28;20516;-79
2021/05/25 06:06:14;;;;;;;1.83;1.37;;;11.60;99.90;;;;;;5066774;28;20205;-79
2021/05/25 06:08:41;;;;;;;1.30;1.00;;;11.60;99.90;;;;;;5070538;28;20207;-80
2021/05/25 06:11:08;;;;;;;2.40;1.20;;;11.50;99.90;;;;;;5066013;28;20297;-79
2021/05/25 06:13:36;;;;;;;1.93;1.30;;;11.70;99.90;;;;;;5076953;28;20452;-79
2021/05/25 06:16:02;;;;;;;1.60;1.33;;;11.70;99.90;;;;;;5073136;28;20894;-79
2021/05/25 06:18:30;;;;;;;2.83;1.33;;;11.80;99.90;;;;;;5071406;28;20481;-79
2021/05/25 06:20:57;;;;;;;1.97;1.10;;;11.70;99.90;;;;;;5066478;28;20493;-79
2021/05/25 06:23:23;;;;;;;1.20;1.10;;;11.70;99.90;;;;;;5064760;28;20498;-80
2021/05/25 06:25:49;;;;;;;1.27;1.00;;;11.90;99.90;;;;;;5068350;28;20438;-79
2021/05/25 06:28:15;;;;;;;2.27;1.10;;;11.60;99.90;;;;;;5048043;28;20216;-81
2021/05/25 06:30:42;;;;;;;1.10;1.00;;;11.60;99.90;;;;;;5064094;28;20192;-78
2021/05/25 06:33:10;;;;;;;4.00;1.10;;;11.70;99.90;;;;;;5049375;28;20433;-80
2021/05/25 06:35:36;;;;;;;6.33;1.70;;;11.90;99.90;;;;;;5032550;28;20402;-79
2021/05/25 06:38:03;;;;;;;4.23;1.20;;;11.70;99.90;;;;;;5053253;28;20402;-80
2021/05/25 06:40:29;;;;;;;1.40;1.10;;;11.80;99.90;;;;;;5068675;28;20453;-79
2021/05/25 06:42:55;;;;;;;1.63;1.27;;;11.70;99.90;;;;;;5041225;28;20502;-80
2021/05/25 06:45:21;;;;;;;1.60;1.40;;;11.60;99.90;;;;;;5046186;28;20561;-79
2021/05/25 06:47:47;;;;;;;1.27;1.17;;;11.60;99.90;;;;;;5046600;28;20447;-79
2021/05/25 06:50:14;;;;;;;1.87;1.40;;;11.60;99.90;;;;;;5039830;28;20425;-79
2021/05/25 06:52:41;;;;;;;1.70;1.17;;;11.60;99.90;;;;;;5037875;28;20869;-78
2021/05/25 06:55:09;;;;;;;4.00;1.53;;;11.60;99.90;;;;;;5034335;28;20414;-78
2021/05/25 06:57:35;;;;;;;2.70;1.40;;;11.50;99.90;;;;;;5018595;28;20438;-79
2021/05/25 07:00:04;;;;;;;2.70;1.37;;;11.30;99.90;;;;;;5044552;28;20422;-81
2021/05/25 07:02:29;;;;;;;5.70;1.40;;;11.20;99.90;;;;;;5041082;28;20434;-79
2021/05/25 07:04:56;;;;;;;1.23;1.13;;;11.30;99.90;;;;;;5038044;28;20453;-80
2021/05/25 07:07:22;;;;;;;1.13;1.03;;;11.50;99.90;;;;;;5084920;28;20349;-80
2021/05/25 07:09:48;;;;;;;1.57;1.47;;;11.40;99.90;;;;;;5072774;28;20406;-79
2021/05/25 07:12:14;;;;;;;3.60;1.33;;;11.30;99.90;;;;;;5053090;28;20444;-80
2021/05/25 07:14:41;;;;;;;4.40;1.33;;;11.30;99.90;;;;;;5071612;28;20421;-82
2021/05/25 07:17:07;;;;;;;1.60;1.30;;;11.10;99.90;;;;;;5066080;28;20181;-80
2021/05/25 07:19:33;;;;;;;1.20;1.10;;;10.90;99.90;;;;;;5070126;28;20417;-81
2021/05/25 07:22:00;;;;;;;3.33;1.57;;;11.00;99.90;;;;;;5068864;28;20428;-82
2021/05/25 07:24:27;;;;;;;1.47;1.37;;;11.30;99.90;;;;;;5087050;28;20459;-81
2021/05/25 07:26:53;;;;;;;2.30;1.53;;;11.50;99.90;;;;;;5067033;28;20456;-82
2021/05/25 07:29:19;;;;;;;3.00;1.53;;;11.40;99.90;;;;;;5060160;28;20487;-82
2021/05/25 07:31:45;;;;;;;1.90;1.30;;;11.40;99.90;;;;;;5094477;28;21470;-82
2021/05/25 07:34:11;;;;;;;1.67;1.07;;;11.60;99.90;;;;;;5073581;28;20183;-82
2021/05/25 07:36:38;;;;;;;1.60;1.30;;;11.90;99.90;;;;;;5097354;28;20443;-81
2021/05/25 07:39:05;;;;;;;1.10;1.00;;;11.90;99.90;;;;;;5076200;28;20417;-81
2021/05/25 07:41:32;;;;;;;1.57;1.17;;;11.60;99.90;;;;;;5082117;28;20409;-81
2021/05/25 07:43:58;;;;;;;1.73;1.10;;;11.70;99.90;;;;;;5063119;28;20457;-81
2021/05/25 07:46:25;;;;;;;1.97;1.77;;;11.80;99.90;;;;;;5081397;28;20424;-82
2021/05/25 07:48:52;;;;;;;2.70;1.33;;;12.00;99.90;;;;;;5049312;28;20479;-81
2021/05/25 07:51:19;;;;;;;1.20;1.10;;;11.90;99.90;;;;;;5033803;28;20426;-81
2021/05/25 07:53:45;;;;;;;1.10;1.00;;;12.00;99.90;;;;;;5055484;28;20445;-81
2021/05/25 07:56:12;;;;;;;1.33;1.23;;;11.80;99.90;;;;;;5069035;28;20485;-82
2021/05/25 07:58:38;;;;;;;3.10;1.30;;;11.70;99.90;;;;;;5069567;28;20437;-81
2021/05/25 08:01:04;;;;;;;1.27;1.17;;;11.90;99.90;;;;;;5054265;28;20410;-81
2021/05/25 08:03:31;;;;;;;1.30;1.10;;;11.70;99.90;;;;;;5067240;28;20504;-81
2021/05/25 08:06:04;;;;;;;1.17;1.07;;;11.90;99.90;;;;;;5079547;28;20883;-81
2021/05/25 08:08:31;;;;;;;2.97;2.03;;;11.90;99.90;;;;;;5036560;28;20477;-81
2021/05/25 08:10:59;;;;;;;2.90;1.47;;;12.10;99.90;;;;;;5065863;28;20433;-81
2021/05/25 08:13:25;;;;;;;3.13;1.33;;;12.30;99.90;;;;;;5066895;28;20422;-81
2021/05/25 08:16:07;;;;;;;3.43;1.30;;;12.00;99.90;;;;;;5068751;28;20509;-82
2021/05/25 08:19:07;;;;;;;1.87;1.37;;;12.20;99.90;;;;;;5048023;28;20488;-81
2021/05/25 08:21:30;;;;;;;2.43;1.40;;;12.20;99.90;;;;;;5037099;28;20451;-82
2021/05/25 08:23:57;;;;;;;3.13;1.30;;;12.30;99.90;;;;;;5040809;28;20420;-80
2021/05/25 08:26:26;;;;;;;1.33;1.23;;;12.60;99.90;;;;;;5047988;28;20452;-82
2021/05/25 08:28:52;;;;;;;5.73;1.60;;;12.40;99.90;;;;;;5053879;28;20465;-81
2021/05/25 08:31:19;;;;;;;1.00;0.90;;;12.70;99.90;;;;;;5007367;28;20466;-81
2021/05/25 08:33:45;;;;;;;2.40;1.00;;;13.00;99.90;;;;;;5031271;28;20426;-81
2021/05/25 08:36:14;;;;;;;1.30;1.20;;;13.00;99.90;;;;;;5059295;28;20785;-81
2021/05/25 08:38:40;;;;;;;2.07;1.80;;;13.00;99.90;;;;;;5009805;28;20207;-82
2021/05/25 08:41:06;;;;;;;2.10;1.30;;;13.00;99.90;;;;;;5022682;28;20419;-81
2021/05/25 08:43:32;;;;;;;2.70;1.20;;;13.00;99.90;;;;;;5057954;28;20228;-79
2021/05/25 08:45:59;;;;;;;1.20;1.10;;;13.10;99.90;;;;;;5045361;28;20445;-81
2021/05/25 08:48:28;;;;;;;1.20;1.10;;;13.20;99.90;;;;;;5040105;28;20434;-81
2021/05/25 08:50:58;;;;;;;1.37;1.10;;;13.00;99.90;;;;;;5046914;28;20433;-81
2021/05/25 08:53:25;;;;;;;3.43;1.43;;;12.50;99.90;;;;;;5063031;28;20422;-81
2021/05/25 08:55:52;;;;;;;1.20;1.10;;;12.60;99.90;;;;;;5047169;28;20437;-81
2021/05/25 08:58:20;;;;;;;1.37;1.20;;;12.80;99.90;;;;;;5069783;28;20433;-82
2021/05/25 09:00:47;;;;;;;2.03;1.17;;;12.50;99.90;;;;;;5064205;28;20426;-81
2021/05/25 09:03:17;;;;;;;2.73;1.70;;;12.70;99.90;;;;;;5053670;28;20397;-81
2021/05/25 09:05:52;;;;;;;1.67;1.40;;;12.80;99.90;;;;;;5073689;28;20425;-81
2021/05/25 09:08:19;;;;;;;1.20;1.10;;;12.60;99.90;;;;;;5068232;28;20511;-82
2021/05/25 09:10:47;;;;;;;1.20;1.10;;;12.80;99.90;;;;;;5035071;28;20449;-81
2021/05/25 09:13:20;;;;;;;2.13;1.00;;;12.80;99.90;;;;;;5045426;28;20898;-81
2021/05/25 09:15:48;;;;;;;1.30;1.20;;;13.00;99.90;;;;;;5035530;28;20426;-80
2021/05/25 09:18:25;;;;;;;2.07;1.50;;;13.20;99.90;;;;;;5013537;28;20948;-80
2021/05/25 09:21:06;;;;;;;1.00;0.90;;;12.70;99.90;;;;;;5048989;28;20427;-81
2021/05/25 09:23:46;;;;;;;1.10;1.00;;;12.50;99.90;;;;;;5064270;28;20808;-79
2021/05/25 09:26:25;;;;;;;2.20;2.10;;;12.70;99.90;;;;;;5045869;28;20425;-81
2021/05/25 09:29:02;;;;;;;1.60;1.10;;;12.80;99.90;;;;;;5047998;28;20438;-81
2021/05/25 09:31:51;;;;;;;1.10;1.00;;;12.90;99.90;;;;;;5054678;28;20433;-82
2021/05/25 09:34:22;;;;;;;2.00;1.23;;;12.90;99.90;;;;;;5043623;28;20800;-82
2021/05/25 09:36:59;;;;;;;2.83;1.20;;;12.80;99.90;;;;;;5038559;28;20421;-81
2021/05/25 09:39:29;;;;;;;1.20;1.10;;;12.50;99.90;;;;;;5057464;28;20405;-81
2021/05/25 09:41:58;;;;;;;1.40;1.20;;;12.20;99.90;;;;;;5047181;28;20429;-81
2021/05/25 09:44:24;;;;;;;1.53;1.17;;;12.30;99.90;;;;;;5050770;28;20450;-81
2021/05/25 09:46:51;;;;;;;1.30;1.20;;;12.40;99.90;;;;;;5048126;28;20415;-81
2021/05/25 09:49:17;;;;;;;1.33;1.03;;;12.40;99.90;;;;;;5040357;28;20415;-81
2021/05/25 09:51:43;;;;;;;1.77;1.10;;;12.30;99.90;;;;;;5050700;28;20440;-81
2021/05/25 09:54:24;;;;;;;1.87;1.27;;;11.90;99.90;;;;;;5061815;28;20164;-81
2021/05/25 09:56:59;;;;;;;1.00;0.93;;;12.10;99.90;;;;;;5059094;28;20477;-81
2021/05/25 09:59:35;;;;;;;2.23;1.40;;;12.00;99.90;;;;;;5068729;28;20509;-82
2021/05/25 10:02:16;;;;;;;2.53;1.20;;;11.90;99.90;;;;;;5059659;28;20410;-81
2021/05/25 10:05:04;;;;;;;1.47;1.10;;;11.80;99.90;;;;;;5072482;28;20413;-81
2021/05/25 10:07:30;;;;;;;1.43;1.10;;;12.10;99.90;;;;;;5053141;28;20457;-81
2021/05/25 10:09:59;;;;;;;1.20;0.97;;;11.90;99.90;;;;;;5061946;28;20438;-82
2021/05/25 10:12:28;;;;;;;1.50;1.33;;;12.00;99.90;;;;;;5064237;28;20417;-79
2021/05/25 10:14:54;;;;;;;1.30;1.20;;;12.40;99.90;;;;;;5048438;28;20485;-80
2021/05/25 10:19:58;;;;;;;1.70;1.27;;;12.50;99.90;;;;;;5055331;28;20413;-80
2021/05/25 10:22:25;;;;;;;1.20;1.10;;;12.50;99.90;;;;;;5065120;28;20436;-80
2021/05/25 10:24:53;;;;;;;1.53;1.13;;;12.40;99.90;;;;;;5081238;28;20420;-80
2021/05/25 10:27:19;;;;;;;1.43;1.10;;;12.60;99.90;;;;;;5064279;28;20560;-79
2021/05/25 10:29:45;;;;;;;1.20;1.10;;;12.60;99.90;;;;;;5079807;28;20422;-79
2021/05/25 10:32:24;;;;;;;1.30;1.20;;;12.50;99.90;;;;;;5065214;28;20490;-82
2021/05/25 10:34:53;;;;;;;1.77;1.13;;;12.20;99.90;;;;;;5079866;28;20460;-81
2021/05/25 10:37:20;;;;;;;2.53;1.30;;;12.50;99.90;;;;;;5084230;28;20793;-78
2021/05/25 10:39:52;;;;;;;2.40;1.10;;;12.30;99.90;;;;;;5064367;28;20443;-80
2021/05/25 10:42:25;;;;;;;1.20;1.10;;;12.40;99.90;;;;;;5065435;28;20428;-78
2021/05/25 10:44:55;;;;;;;1.20;1.10;;;12.40;99.90;;;;;;5068043;28;20541;-80
2021/05/25 10:47:28;;;;;;;1.70;1.60;;;12.50;99.90;;;;;;5074626;28;20453;-81
2021/05/25 10:49:57;;;;;;;1.20;1.10;;;12.50;99.90;;;;;;5064696;28;20419;-80
2021/05/25 10:52:24;;;;;;;3.63;1.40;;;12.80;99.90;;;;;;5066081;28;20425;-80
2021/05/25 10:54:54;;;;;;;1.70;1.00;;;12.50;99.90;;;;;;5079498;28;20437;-81
2021/05/25 10:57:48;;;;;;;1.60;1.50;;;12.50;99.90;;;;;;5073453;28;20425;-80
2021/05/25 11:00:38;;;;;;;1.97;1.10;;;12.60;99.90;;;;;;5075914;28;20426;-82
2021/05/25 11:03:22;;;;;;;1.00;0.90;;;13.10;99.90;;;;;;5073518;28;20483;-81
2021/05/25 11:05:56;;;;;;;4.70;1.30;;;12.90;99.90;;;;;;5079209;28;20799;-82
2021/05/25 11:08:25;;;;;;;2.17;1.10;;;12.90;99.90;;;;;;5040086;28;20473;-81
2021/05/25 11:11:15;;;;;;;2.60;1.20;;;12.80;99.90;;;;;;5051093;28;20416;-81
2021/05/25 11:13:49;;;;;;;1.47;1.17;;;12.50;99.90;;;;;;5028579;28;20440;-81
2021/05/25 11:16:31;;;;;;;1.50;1.40;;;12.70;99.90;;;;;;5049561;28;20469;-81
2021/05/25 11:19:22;;;;;;;1.47;1.10;;;12.90;99.90;;;;;;5065589;28;20473;-80
2021/05/25 11:24:50;;;;;;;1.30;1.20;;;12.70;99.90;;;;;;5056281;28;20493;-81
2021/05/25 11:27:33;;;;;;;1.20;1.10;;;12.80;99.90;;;;;;5047944;28;20897;-81
2021/05/25 11:30:05;;;;;;;1.50;1.40;;;12.70;99.90;;;;;;5064307;28;20426;-81
2021/05/25 11:32:39;;;;;;;1.43;1.20;;;12.60;99.90;;;;;;5044807;28;20468;-81
2021/05/25 11:35:11;;;;;;;3.07;1.03;;;12.60;99.90;;;;;;5051758;28;20534;-81
2021/05/25 11:37:43;;;;;;;1.10;1.00;;;12.60;99.90;;;;;;5045917;28;20426;-80
2021/05/25 11:40:12;;;;;;;1.10;1.03;;;12.80;99.90;;;;;;5078903;28;20410;-80
2021/05/25 11:42:38;;;;;;;4.60;2.03;;;12.80;99.90;;;;;;5069905;28;20493;-80
2021/05/25 11:45:08;;;;;;;1.30;1.20;;;13.20;99.90;;;;;;5065603;28;20460;-81
2021/05/25 11:47:35;;;;;;;1.10;1.00;;;13.50;99.90;;;;;;5056485;28;20465;-81
2021/05/25 11:50:01;;;;;;;1.30;1.20;;;13.40;99.90;;;;;;5030502;28;20448;-79
2021/05/25 11:52:30;;;;;;;1.27;1.13;;;13.20;99.90;;;;;;5036710;28;20418;-80
2021/05/25 11:55:01;;;;;;;1.57;1.47;;;13.50;99.90;;;;;;5039239;28;20189;-79
2021/05/25 11:57:42;;;;;;;3.07;1.30;;;13.30;99.90;;;;;;5040104;28;20415;-79
2021/05/25 12:00:22;;;;;;;1.50;1.40;;;13.40;99.90;;;;;;5025596;28;20492;-79
2021/05/25 12:02:52;;;;;;;1.40;1.30;;;13.30;99.90;;;;;;4993363;28;20427;-79
2021/05/25 12:05:22;;;;;;;1.57;1.20;;;13.00;99.90;;;;;;5024109;28;20838;-81
2021/05/25 12:07:51;;;;;;;1.90;1.70;;;12.60;99.90;;;;;;5031178;28;20805;-81
2021/05/25 12:10:39;;;;;;;1.90;1.63;;;13.00;99.90;;;;;;5012447;28;20478;-80
2021/05/25 12:13:08;;;;;;;1.47;1.37;;;12.90;99.90;;;;;;5007876;28;20444;-80
2021/05/25 12:16:03;;;;;;;1.57;1.47;;;13.30;99.90;;;;;;5030312;28;20407;-80
2021/05/25 12:18:36;;;;;;;3.73;1.63;;;13.70;99.90;;;;;;5057123;28;20414;-80
2021/05/25 12:21:04;;;;;;;3.00;1.30;;;14.60;99.90;;;;;;5056478;28;20453;-82
2021/05/25 12:23:30;;;;;;;1.40;1.30;;;15.20;99.90;;;;;;5048656;28;20557;-79
2021/05/25 12:25:57;;;;;;;2.23;1.40;;;14.20;99.90;;;;;;5047585;28;20435;-80
2021/05/25 12:28:34;;;;;;;1.53;1.10;;;14.40;99.90;;;;;;5041572;28;20886;-79
2021/05/25 12:31:03;;;;;;;1.40;1.30;;;14.30;99.90;;;;;;5024782;28;20408;-78
2021/05/25 12:33:33;;;;;;;2.90;1.37;;;14.10;99.90;;;;;;5024764;28;20495;-81
2021/05/25 12:36:35;;;;;;;1.20;1.10;;;14.20;99.90;;;;;;5002049;28;20453;-81
2021/05/25 12:39:05;;;;;;;1.47;1.10;;;14.20;99.90;;;;;;5001285;28;20429;-82
2021/05/25 12:41:43;;;;;;;3.73;1.20;;;14.30;99.90;;;;;;5000414;28;20421;-83
2021/05/25 12:44:11;;;;;;;1.20;1.10;;;14.10;99.90;;;;;;4994194;28;20474;-82
2021/05/25 12:46:50;;;;;;;1.40;1.30;;;14.20;99.90;;;;;;5001870;28;20872;-80
2021/05/25 12:49:37;;;;;;;1.77;1.67;;;14.00;99.90;;;;;;5022053;28;20443;-80
2021/05/25 12:52:25;;;;;;;1.30;1.20;;;14.10;99.90;;;;;;5024661;28;20402;-80
2021/05/25 12:55:12;;;;;;;2.70;1.10;;;14.50;99.90;;;;;;5029653;28;20590;-83
2021/05/25 12:57:47;;;;;;;1.83;1.27;;;15.00;99.90;;;;;;5036529;28;20411;-82
2021/05/25 13:00:19;;;;;;;2.23;1.00;;;15.10;99.90;;;;;;5039794;28;20418;-80
2021/05/25 13:02:50;;;;;;;3.27;1.27;;;14.90;99.90;;;;;;5039261;28;21026;-80